Time;durP1;ratioP1;P1;durP2;ratioP2;P2;SDS_P1;SDS_P2;PMS_P1;PMS_P2;Temp;Humidity;BMP_temperature;BMP_pressure;BME280_temperature;BME280_humidity;BME280_pressure;Samples;Min_cycle;Max_cycle;Signal;HPM_P1;HPM_P2
2023/01/04 00:01:13;;;;;;;;;;;4.10;64.10;;;;;;5036108;28;19917;-84
2023/01/04 00:03:55;;;;;;;;;;;4.10;62.00;;;;;;5055956;28;19948;-84
2023/01/04 00:09:23;;;;;;;;;;;4.10;60.40;;;;;;5043291;28;19915;-84
2023/01/04 00:11:55;;;;;;;;;;;4.10;59.40;;;;;;5062006;28;19913;-75
2023/01/04 00:14:25;;;;;;;;;;;4.10;57.60;;;;;;5035318;28;19949;-75
2023/01/04 00:17:07;;;;;;;;;;;4.20;61.00;;;;;;5043487;28;19923;-75
2023/01/04 00:19:32;;;;;;;;;;;4.20;66.40;;;;;;5035241;28;19956;-75
2023/01/04 00:21:58;;;;;;;;;;;4.30;76.30;;;;;;5035231;28;19909;-75
2023/01/04 00:24:24;;;;;;;;;;;4.30;83.10;;;;;;5038962;28;20273;-75
2023/01/04 00:29:52;;;;;;;;;;;4.40;89.20;;;;;;5044795;28;19916;-84
2023/01/04 00:38:33;;;;;;;;;;;4.70;84.80;;;;;;5034821;28;19968;-84
2023/01/04 00:41:08;;;;;;;;;;;4.70;81.80;;;;;;5047753;28;19913;-84
2023/01/04 00:43:55;;;;;;;;;;;4.80;81.10;;;;;;5045658;28;19916;-85
2023/01/04 00:55:31;;;;;;;;;;;5.10;90.90;;;;;;5042024;28;19919;-76
2023/01/04 00:57:57;;;;;;;;;;;5.10;91.30;;;;;;5042914;28;19909;-75
2023/01/04 01:00:25;;;;;;;;;;;5.10;92.60;;;;;;5038874;28;19988;-76
2023/01/04 01:02:55;;;;;;;;;;;5.20;93.40;;;;;;5052840;28;20423;-76
2023/01/04 01:05:20;;;;;;;;;;;5.20;92.50;;;;;;5051108;28;19924;-76
2023/01/04 01:07:46;;;;;;;;;;;5.30;93.30;;;;;;5060158;28;20245;-76
2023/01/04 01:10:12;;;;;;;;;;;5.20;91.30;;;;;;5040122;28;19909;-75
2023/01/04 01:12:43;;;;;;;;;;;5.30;89.60;;;;;;5044091;28;20314;-75
2023/01/04 01:15:09;;;;;;;;;;;5.30;86.60;;;;;;5044896;28;20003;-75
2023/01/04 01:17:35;;;;;;;;;;;5.30;84.90;;;;;;5034640;28;19952;-76
2023/01/04 01:20:03;;;;;;;;;;;5.20;83.00;;;;;;5042615;28;20277;-76
2023/01/04 01:22:29;;;;;;;;;;;5.30;81.40;;;;;;5035405;28;19995;-75
2023/01/04 01:24:55;;;;;;;;;;;5.20;82.30;;;;;;5053084;28;19955;-75
2023/01/04 01:27:25;;;;;;;;;;;5.20;83.70;;;;;;5042549;28;19928;-75
2023/01/04 01:30:01;;;;;;;;;;;5.20;82.00;;;;;;5039245;28;19913;-76
2023/01/04 01:32:27;;;;;;;;;;;5.20;82.70;;;;;;5038534;28;19932;-75
2023/01/04 01:34:52;;;;;;;;;;;5.20;87.90;;;;;;5045021;28;19912;-75
2023/01/04 01:37:18;;;;;;;;;;;5.20;91.10;;;;;;5068215;28;20244;-76
2023/01/04 01:39:55;;;;;;;;;;;5.40;95.00;;;;;;5054110;28;20244;-75
2023/01/04 01:42:22;;;;;;;;;;;5.50;98.70;;;;;;5049586;28;19912;-75
2023/01/04 01:44:53;;;;;;;;;;;5.60;99.60;;;;;;5039769;28;19913;-76
2023/01/04 01:47:45;;;;;;;;;;;5.70;99.90;;;;;;5059214;28;19913;-75
2023/01/04 01:50:22;;;;;;;;;;;5.70;99.90;;;;;;5040568;28;20410;-75
2023/01/04 01:52:48;;;;;;;;;;;5.90;99.90;;;;;;5052051;28;19916;-76
2023/01/04 01:55:15;;;;;;;;;;;5.90;99.90;;;;;;5049546;28;19913;-75
2023/01/04 02:00:44;;;;;;;;;;;6.00;99.90;;;;;;5042330;28;19920;-84
2023/01/04 02:18:22;;;;;;;;;;;6.20;92.90;;;;;;5042978;28;19962;-84
2023/01/04 02:27:00;;;;;;;;;;;6.20;92.10;;;;;;5062593;28;19963;-75
2023/01/04 02:29:31;;;;;;;;;;;6.20;91.00;;;;;;5037159;28;19909;-76
2023/01/04 02:32:19;;;;;;;;;;;6.20;90.40;;;;;;5043608;28;20058;-76
2023/01/04 02:35:19;;;;;;;;;;;6.20;89.50;;;;;;5053755;28;19963;-75
2023/01/04 02:38:14;;;;;;;;;;;6.30;84.10;;;;;;4978664;28;1847666;-76
2023/01/04 02:40:46;;;;;;;;;;;6.30;86.60;;;;;;5027576;28;20369;-76
2023/01/04 02:46:08;;;;;;;;;;;6.40;81.50;;;;;;5013754;28;19936;-75
2023/01/04 02:51:40;;;;;;;;;;;6.30;79.10;;;;;;5002848;28;19920;-76
2023/01/04 02:54:12;;;;;;;;;;;6.30;80.60;;;;;;5014701;28;20047;-76
2023/01/04 02:59:40;;;;;;;;;;;6.40;78.20;;;;;;5006503;28;19996;-85
2023/01/04 03:14:37;;;;;;;;;;;6.40;68.40;;;;;;5000563;28;19953;-76
2023/01/04 03:17:10;;;;;;;;;;;6.40;67.80;;;;;;5020085;28;19913;-76
2023/01/04 03:19:57;;;;;;;;;;;6.40;69.00;;;;;;5048765;28;20007;-76
2023/01/04 03:36:57;;;;;;;;;;;6.50;56.50;;;;;;5038707;28;19996;-85
2023/01/04 03:51:02;;;;;;;;;;;6.60;40.00;;;;;;5043800;28;19951;-76
2023/01/04 03:53:33;;;;;;;;;;;6.60;40.10;;;;;;5041896;28;19920;-76
2023/01/04 03:55:59;;;;;;;;;;;6.60;40.00;;;;;;5035436;28;19962;-76
2023/01/04 03:58:25;;;;;;;;;;;6.60;40.00;;;;;;5048057;28;19974;-76
2023/01/04 04:01:07;;;;;;;;;;;6.60;40.00;;;;;;5046980;28;19912;-76
2023/01/04 04:09:05;;;;;;;;;;;6.70;40.00;;;;;;5047079;28;19917;-76
2023/01/04 04:11:31;;;;;;;;;;;6.70;40.00;;;;;;5035353;28;19909;-76
2023/01/04 04:14:13;;;;;;;;;;;6.80;40.30;;;;;;5060383;28;20262;-75
2023/01/04 04:16:49;;;;;;;;;;;6.80;40.20;;;;;;5046276;28;19960;-76
2023/01/04 04:19:15;;;;;;;;;;;6.80;40.10;;;;;;5036114;28;19913;-75
2023/01/04 04:21:43;;;;;;;;;;;6.60;40.00;;;;;;5036718;28;20012;-76
2023/01/04 04:24:14;;;;;;;;;;;6.60;40.00;;;;;;5037611;28;19996;-75
2023/01/04 04:26:40;;;;;;;;;;;6.70;40.10;;;;;;5036696;28;19929;-75
2023/01/04 04:29:05;;;;;;;;;;;6.70;40.00;;;;;;5034530;28;19913;-75
2023/01/04 04:31:31;;;;;;;;;;;6.80;40.30;;;;;;5048198;28;19909;-75
2023/01/04 04:33:57;;;;;;;;;;;6.80;40.30;;;;;;5035963;28;20291;-75
2023/01/04 04:36:22;;;;;;;;;;;6.70;40.20;;;;;;5036602;28;19909;-76
2023/01/04 04:38:48;;;;;;;;;;;6.80;40.30;;;;;;5046710;28;20027;-76
2023/01/04 04:41:37;;;;;;;;;;;6.80;40.10;;;;;;5066713;28;19908;-76
2023/01/04 04:44:13;;;;;;;;;;;6.70;40.00;;;;;;5061377;28;19956;-76
2023/01/04 04:49:49;;;;;;;;;;;6.60;40.00;;;;;;5027635;28;20033;-79
2023/01/04 04:52:19;;;;;;;;;;;6.70;40.00;;;;;;5045814;28;19959;-79
2023/01/04 04:54:55;;;;;;;;;;;6.70;40.20;;;;;;5037357;28;19913;-79
2023/01/04 04:57:25;;;;;;;;;;;6.70;40.10;;;;;;5061350;28;19995;-79
2023/01/04 05:00:07;;;;;;;;;;;6.70;40.00;;;;;;5046808;28;19913;-79
2023/01/04 05:02:37;;;;;;;;;;;6.60;40.10;;;;;;5046238;28;19913;-78
2023/01/04 05:05:07;;;;;;;;;;;6.60;40.00;;;;;;5043041;28;19909;-79
2023/01/04 05:07:49;;;;;;;;;;;6.60;40.00;;;;;;5047331;28;20431;-79
2023/01/04 05:10:31;;;;;;;;;;;6.60;40.00;;;;;;5044448;28;19909;-79
2023/01/04 05:13:11;;;;;;;;;;;6.60;40.00;;;;;;5034547;28;19990;-80
2023/01/04 05:15:38;;;;;;;;;;;6.60;40.10;;;;;;5033740;28;19955;-80
2023/01/04 05:18:20;;;;;;;;;;;6.60;40.00;;;;;;5044903;28;19913;-80
2023/01/04 05:20:46;;;;;;;;;;;6.60;40.00;;;;;;5034183;28;19910;-81
2023/01/04 05:26:19;;;;;;;;;;;6.50;39.90;;;;;;5043998;28;20383;-80
2023/01/04 05:28:45;;;;;;;;;;;6.50;39.80;;;;;;5040174;28;19917;-78
2023/01/04 05:31:20;;;;;;;;;;;6.50;39.90;;;;;;5032636;28;19924;-79
2023/01/04 05:33:49;;;;;;;;;;;6.60;40.00;;;;;;5045612;28;19917;-78
2023/01/04 05:36:14;;;;;;;;;;;6.50;39.90;;;;;;5040462;28;19909;-79
2023/01/04 05:38:49;;;;;;;;;;;6.50;39.90;;;;;;5046687;28;19978;-78
2023/01/04 05:44:19;;;;;;;;;;;6.60;40.00;;;;;;5034449;28;19964;-78
2023/01/04 05:46:49;;;;;;;;;;;6.50;39.90;;;;;;5046612;28;20008;-78
2023/01/04 05:52:37;;;;;;;;;;;6.50;40.10;;;;;;5043269;28;19915;-79
2023/01/04 05:55:03;;;;;;;;;;;6.50;39.80;;;;;;5049695;28;19917;-78
2023/01/04 05:57:31;;;;;;;;;;;6.40;39.80;;;;;;5034465;28;19913;-79
2023/01/04 05:59:57;;;;;;;;;;;6.40;39.80;;;;;;5045954;28;19924;-80
2023/01/04 06:02:24;;;;;;;;;;;6.50;39.90;;;;;;5050486;28;19917;-79
2023/01/04 06:04:50;;;;;;;;;;;6.50;40.00;;;;;;5042525;28;19916;-78
2023/01/04 06:07:19;;;;;;;;;;;6.50;39.90;;;;;;5047495;28;19913;-78
2023/01/04 06:09:45;;;;;;;;;;;6.60;44.00;;;;;;5048011;28;19955;-79
2023/01/04 06:12:31;;;;;;;;;;;6.60;40.00;;;;;;5038923;28;19912;-78
2023/01/04 06:15:19;;;;;;;;;;;6.60;40.00;;;;;;5041574;28;19909;-78
2023/01/04 06:18:01;;;;;;;;;;;6.50;39.90;;;;;;5061316;28;19919;-78
2023/01/04 06:20:49;;;;;;;;;;;6.40;39.80;;;;;;5051538;28;19987;-78
2023/01/04 06:23:19;;;;;;;;;;;6.40;39.80;;;;;;5049139;28;19913;-78
2023/01/04 06:25:49;;;;;;;;;;;6.40;39.80;;;;;;5050628;28;20052;-78
2023/01/04 06:28:15;;;;;;;;;;;6.40;39.90;;;;;;5047664;28;19923;-78
2023/01/04 06:30:55;;;;;;;;;;;6.40;39.80;;;;;;5046849;28;19912;-79
2023/01/04 06:33:21;;;;;;;;;;;6.40;39.80;;;;;;5047691;28;19913;-75
2023/01/04 06:35:53;;;;;;;;;;;6.40;39.90;;;;;;5056782;28;19974;-76
2023/01/04 06:38:19;;;;;;;;;;;6.50;39.90;;;;;;5051843;28;19917;-77
2023/01/04 06:40:49;;;;;;;;;;;6.40;39.80;;;;;;5041076;28;19913;-77
2023/01/04 06:43:25;;;;;;;;;;;6.30;39.90;;;;;;5037484;28;20345;-77
2023/01/04 06:45:51;;;;;;;;;;;6.30;39.70;;;;;;5054446;28;20411;-74
2023/01/04 06:48:17;;;;;;;;;;;6.30;39.70;;;;;;5046202;28;20059;-73
2023/01/04 06:50:42;;;;;;;;;;;6.30;39.70;;;;;;5057225;28;19971;-71
2023/01/04 06:53:08;;;;;;;;;;;6.30;39.70;;;;;;5052414;28;19924;-73
2023/01/04 06:55:33;;;;;;;;;;;6.40;40.20;;;;;;5053599;28;20033;-70
2023/01/04 06:58:01;;;;;;;;;;;6.30;39.90;;;;;;5043217;28;19936;-74
2023/01/04 07:00:27;;;;;;;;;;;6.40;39.80;;;;;;5043853;28;19913;-80
2023/01/04 07:02:55;;;;;;;;;;;6.30;39.70;;;;;;5041910;28;19971;-76
2023/01/04 07:05:21;;;;;;;;;;;6.40;39.80;;;;;;5049107;28;19913;-81
2023/01/04 07:07:49;;;;;;;;;;;6.40;40.00;;;;;;5041193;28;19978;-80
2023/01/04 07:10:15;;;;;;;;;;;6.30;46.50;;;;;;5048655;28;19916;-78
2023/01/04 07:12:40;;;;;;;;;;;6.30;52.40;;;;;;5050185;28;19913;-74
2023/01/04 07:15:25;;;;;;;;;;;6.40;53.90;;;;;;5037063;28;19913;-86
2023/01/04 07:17:55;;;;;;;;;;;6.40;53.70;;;;;;5039678;28;19913;-82
2023/01/04 07:20:55;;;;;;;;;;;6.40;52.50;;;;;;5045291;28;19913;-82
2023/01/04 07:23:21;;;;;;;;;;;6.50;39.90;;;;;;5046289;28;20427;-81
2023/01/04 07:25:46;;;;;;;;;;;6.50;39.90;;;;;;5043785;28;20000;-81
2023/01/04 07:31:15;;;;;;;;;;;6.60;40.10;;;;;;5042882;28;19931;-75
2023/01/04 07:33:43;;;;;;;;;;;6.60;39.90;;;;;;5046852;28;19917;-75
2023/01/04 07:36:09;;;;;;;;;;;6.60;40.00;;;;;;5038746;28;19967;-75
2023/01/04 07:38:43;;;;;;;;;;;6.60;40.10;;;;;;5046337;28;20367;-75
2023/01/04 07:41:09;;;;;;;;;;;6.60;40.00;;;;;;5046930;28;19939;-74
2023/01/04 07:43:34;;;;;;;;;;;6.60;40.00;;;;;;5039275;28;19995;-75
2023/01/04 07:49:03;;;;;;;;;;;6.70;40.30;;;;;;5049842;28;19964;-81
2023/01/04 07:51:29;;;;;;;;;;;6.70;40.20;;;;;;5064046;28;20388;-82
2023/01/04 07:54:01;;;;;;;;;;;6.70;40.00;;;;;;5035180;28;20280;-82
2023/01/04 07:56:27;;;;;;;;;;;6.80;40.20;;;;;;5035292;28;19909;-82
2023/01/04 07:59:13;;;;;;;;;;;6.80;40.20;;;;;;5042522;28;19915;-82
2023/01/04 08:01:39;;;;;;;;;;;6.80;40.10;;;;;;5042193;28;19909;-82
2023/01/04 08:16:43;;;;;;;;;;;7.00;26.00;;;;;;5052301;28;19959;-82
2023/01/04 08:19:14;;;;;;;;;;;7.00;27.00;;;;;;5041386;28;19909;-81
2023/01/04 08:24:43;;;;;;;;;;;7.00;30.30;;;;;;5041039;28;19916;-82
2023/01/04 08:27:43;;;;;;;;;;;7.00;27.50;;;;;;5048357;28;19916;-81
2023/01/04 08:30:09;;;;;;;;;;;7.10;27.10;;;;;;5034377;28;19921;-75
2023/01/04 08:32:35;;;;;;;;;;;7.10;27.80;;;;;;5039868;28;19913;-74
2023/01/04 08:35:01;;;;;;;;;;;7.10;28.30;;;;;;5036329;28;19934;-74
2023/01/04 08:37:28;;;;;;;;;;;7.10;29.90;;;;;;5041823;28;19924;-76
2023/01/04 08:40:07;;;;;;;;;;;7.20;25.80;;;;;;5040874;28;20426;-75
2023/01/04 08:42:33;;;;;;;;;;;7.20;26.70;;;;;;5035363;28;20357;-76
2023/01/04 08:44:59;;;;;;;;;;;7.20;24.50;;;;;;5046930;28;19932;-76
2023/01/04 08:47:26;;;;;;;;;;;7.30;24.20;;;;;;5040379;28;19916;-77
2023/01/04 08:50:01;;;;;;;;;;;7.30;21.00;;;;;;5048863;28;19913;-77
2023/01/04 08:52:27;;;;;;;;;;;7.30;22.20;;;;;;5055955;28;19916;-77
2023/01/04 08:54:55;;;;;;;;;;;7.20;23.90;;;;;;5043955;28;20004;-77
2023/01/04 08:57:25;;;;;;;;;;;7.30;23.70;;;;;;5051682;28;19913;-77
2023/01/04 09:03:13;;;;;;;;;;;7.30;26.20;;;;;;5043411;28;19916;-82
2023/01/04 09:06:07;;;;;;;;;;;7.30;27.70;;;;;;5045784;28;19999;-82
2023/01/04 09:08:38;;;;;;;;;;;7.50;22.50;;;;;;5040601;28;19924;-82
2023/01/04 09:11:20;;;;;;;;;;;7.50;21.30;;;;;;5051230;28;19947;-83
2023/01/04 09:16:55;;;;;;;;;;;7.60;19.50;;;;;;5041518;28;19954;-82
2023/01/04 09:19:37;;;;;;;;;;;7.50;19.90;;;;;;5051717;28;19922;-80
2023/01/04 09:22:37;;;;;;;;;;;7.50;22.40;;;;;;5034179;28;19909;-81
2023/01/04 09:25:04;;;;;;;;;;;7.50;23.40;;;;;;5034690;28;19909;-82
2023/01/04 09:27:38;;;;;;;;;;;7.60;24.00;;;;;;5062231;28;19928;-82
2023/01/04 09:30:37;;;;;;;;;;;7.70;22.00;;;;;;5054077;28;19913;-82
2023/01/04 09:36:06;;;;;;;;;;;7.80;17.70;;;;;;5040088;28;19959;-82
2023/01/04 09:38:43;;;;;;;;;;;7.80;19.30;;;;;;5044527;28;19917;-82
2023/01/04 09:44:16;;;;;;;;;;;7.80;20.00;;;;;;5033805;28;20103;-82
2023/01/04 09:46:45;;;;;;;;;;;7.90;17.50;;;;;;5034355;28;19913;-77
2023/01/04 09:49:29;;;;;;;;;;;7.90;17.80;;;;;;5035630;28;20303;-77
2023/01/04 09:52:01;;;;;;;;;;;8.00;16.60;;;;;;5066255;28;19913;-76
2023/01/04 09:54:57;;;;;;;;;;;8.10;12.10;;;;;;5041155;28;19936;-76
2023/01/04 09:57:27;;;;;;;;;;;8.10;10.80;;;;;;5016818;28;20388;-76
2023/01/04 10:00:09;;;;;;;;;;;8.10;11.70;;;;;;5038537;28;20408;-77
2023/01/04 10:02:40;;;;;;;;;;;8.20;10.00;;;;;;5038664;28;19913;-82
2023/01/04 10:05:13;;;;;;;;;;;8.20;8.90;;;;;;5035731;28;20300;-82
2023/01/04 10:10:53;;;;;;;;;;;8.20;8.40;;;;;;5034190;28;19928;-81
2023/01/04 10:16:35;;;;;;;;;;;8.30;11.20;;;;;;5015795;28;19949;-82
2023/01/04 10:19:18;;;;;;;;;;;8.30;9.90;;;;;;5029633;28;19913;-82
2023/01/04 10:24:55;;;;;;;;;;;8.40;6.70;;;;;;5027461;28;20059;-82
2023/01/04 10:27:49;;;;;;;;;;;8.30;6.20;;;;;;5045617;28;20376;-82
2023/01/04 10:33:23;;;;;;;;;;;8.40;8.20;;;;;;5034689;28;20361;-76
2023/01/04 10:35:56;;;;;;;;;;;8.50;6.80;;;;;;5044870;28;20410;-78
2023/01/04 10:38:35;;;;;;;;;;;8.40;5.10;;;;;;5036959;28;19921;-77
2023/01/04 10:41:20;;;;;;;;;;;8.50;5.50;;;;;;5069269;28;19956;-77
2023/01/04 10:43:54;;;;;;;;;;;8.50;3.80;;;;;;5058900;28;20245;-77
2023/01/04 10:46:28;;;;;;;;;;;8.50;3.90;;;;;;5039622;28;20281;-79
2023/01/04 10:49:21;;;;;;;;;;;8.60;2.50;;;;;;5043576;28;19913;-77
2023/01/04 10:52:06;;;;;;;;;;;8.60;4.20;;;;;;4993468;28;20302;-77
2023/01/04 10:54:37;;;;;;;;;;;8.70;2.30;;;;;;5005631;28;19953;-76
2023/01/04 10:57:11;;;;;;;;;;;8.70;1.60;;;;;;5014563;28;20304;-76
2023/01/04 10:59:43;;;;;;;;;;;8.70;1.70;;;;;;5005642;28;19918;-78
2023/01/04 11:02:19;;;;;;;;;;;8.70;1.30;;;;;;5004802;28;20316;-76
2023/01/04 11:04:55;;;;;;;;;;;8.70;1.50;;;;;;5015351;28;19936;-77
2023/01/04 11:07:30;;;;;;;;;;;8.80;2.50;;;;;;5022513;28;19924;-77
2023/01/04 11:10:25;;;;;;;;;;;8.80;1.90;;;;;;5014683;28;19975;-76
2023/01/04 11:12:52;;;;;;;;;;;8.90;1.60;;;;;;5003004;28;19928;-76
2023/01/04 11:15:19;;;;;;;;;;;9.00;1.00;;;;;;4993975;28;20049;-76
2023/01/04 11:17:46;;;;;;;;;;;9.00;1.00;;;;;;5001396;28;20104;-76
2023/01/04 11:20:13;;;;;;;;;;;8.90;1.00;;;;;;4999099;28;20037;-77
2023/01/04 11:22:41;;;;;;;;;;;9.00;1.00;;;;;;4996623;28;20373;-77
2023/01/04 11:25:17;;;;;;;;;;;8.90;1.00;;;;;;5013173;28;20368;-77
2023/01/04 11:27:46;;;;;;;;;;;8.90;1.00;;;;;;5007239;28;20431;-77
2023/01/04 11:30:20;;;;;;;;;;;9.00;1.00;;;;;;5037853;28;19921;-77
2023/01/04 11:32:55;;;;;;;;;;;8.90;1.00;;;;;;5054240;28;19967;-82
2023/01/04 11:35:36;;;;;;;;;;;9.00;1.00;;;;;;5065735;28;20379;-82
2023/01/04 11:44:43;;;;;;;;;;;9.10;1.00;;;;;;5042445;28;19915;-82
2023/01/04 11:47:27;;;;;;;;;;;9.20;1.00;;;;;;5043220;28;19917;-76
2023/01/04 11:49:55;;;;;;;;;;;9.30;1.00;;;;;;5064413;28;20014;-76
2023/01/04 11:52:44;;;;;;;;;;;9.30;1.00;;;;;;5043073;28;19940;-77
2023/01/04 11:55:24;;;;;;;;;;;9.30;1.00;;;;;;5049325;28;19920;-81
2023/01/04 11:58:05;;;;;;;;;;;9.30;1.00;;;;;;5047018;28;19909;-77
2023/01/04 12:00:31;;;;;;;;;;;9.40;1.00;;;;;;5040794;28;20352;-77
2023/01/04 12:03:19;;;;;;;;;;;9.40;1.00;;;;;;5042559;28;19948;-77
2023/01/04 12:05:49;;;;;;;;;;;9.30;1.00;;;;;;5039824;28;19927;-77
2023/01/04 12:08:27;;;;;;;;;;;9.40;1.00;;;;;;5041982;28;19920;-78
2023/01/04 12:11:04;;;;;;;;;;;9.40;1.00;;;;;;5033695;28;19909;-78
2023/01/04 12:13:38;;;;;;;;;;;9.40;1.00;;;;;;5050977;28;19909;-77
2023/01/04 12:16:19;;;;;;;;;;;9.30;1.00;;;;;;5035511;28;19909;-80
2023/01/04 12:24:53;;;;;;;;;;;9.50;1.00;;;;;;5034681;28;19940;-81
2023/01/04 12:27:31;;;;;;;;;;;9.60;1.00;;;;;;5035829;28;19916;-81
2023/01/04 12:29:59;;;;;;;;;;;9.60;1.00;;;;;;5033458;28;19913;-81
2023/01/04 12:32:37;;;;;;;;;;;9.60;1.00;;;;;;5041604;28;19909;-81
2023/01/04 12:35:27;;;;;;;;;;;9.60;1.00;;;;;;5046264;28;19916;-81
2023/01/04 12:38:13;;;;;;;;;;;9.60;1.00;;;;;;5042598;28;19917;-82
2023/01/04 12:44:01;;;;;;;;;;;9.60;1.00;;;;;;5038493;28;19928;-81
2023/01/04 12:49:32;;;;;;;;;;;9.70;1.00;;;;;;5037950;28;19957;-76
2023/01/04 12:52:07;;;;;;;;;;;9.60;1.00;;;;;;5034252;28;20008;-76
2023/01/04 12:54:51;;;;;;;;;;;9.60;1.10;;;;;;5033351;28;20011;-77
2023/01/04 12:57:22;;;;;;;;;;;9.60;3.70;;;;;;5038481;28;19909;-77
2023/01/04 12:59:55;;;;;;;;;;;9.70;5.70;;;;;;5054466;28;19915;-77
2023/01/04 13:02:31;;;;;;;;;;;9.60;6.00;;;;;;5048052;28;19909;-77
2023/01/04 13:05:13;;;;;;;;;;;9.60;5.40;;;;;;5047954;28;20340;-78
2023/01/04 13:07:44;;;;;;;;;;;9.50;7.50;;;;;;5074347;28;19948;-76
2023/01/04 13:10:25;;;;;;;;;;;9.60;8.20;;;;;;5057390;28;20354;-76
2023/01/04 13:13:01;;;;;;;;;;;9.70;6.60;;;;;;5041111;28;20276;-77
2023/01/04 13:15:41;;;;;;;;;;;9.80;5.70;;;;;;5052854;28;19912;-76
2023/01/04 13:18:34;;;;;;;;;;;9.70;6.10;;;;;;5044693;28;19912;-83
2023/01/04 13:21:22;;;;;;;;;;;9.80;7.50;;;;;;5012091;28;19917;-77
2023/01/04 13:24:03;;;;;;;;;;;9.90;4.10;;;;;;4961141;28;20282;-77
2023/01/04 13:26:38;;;;;;;;;;;9.90;6.30;;;;;;4973029;28;20390;-78
2023/01/04 13:29:11;;;;;;;;;;;9.90;1.00;;;;;;4973439;28;19933;-77
2023/01/04 13:31:43;;;;;;;;;;;10.00;1.00;;;;;;4973498;28;19917;-77
2023/01/04 13:37:16;;;;;;;;;;;10.00;1.00;;;;;;4970340;28;20005;-82
2023/01/04 13:39:51;;;;;;;;;;;10.10;1.00;;;;;;4973415;28;20026;-82
2023/01/04 13:45:32;;;;;;;;;;;10.20;1.00;;;;;;4972911;28;19941;-82
2023/01/04 13:48:03;;;;;;;;;;;10.20;1.00;;;;;;4973542;28;19914;-82
2023/01/04 13:50:34;;;;;;;;;;;10.10;1.00;;;;;;4962118;28;19914;-81
2023/01/04 13:59:05;;;;;;;;;;;10.20;1.00;;;;;;4965706;28;19917;-81
2023/01/04 14:01:34;;;;;;;;;;;10.20;1.00;;;;;;5029632;28;19919;-82
2023/01/04 14:04:01;;;;;;;;;;;10.30;1.00;;;;;;5037186;28;19913;-76
2023/01/04 14:09:35;;;;;;;;;;;10.30;1.00;;;;;;5044719;28;19996;-82
2023/01/04 14:12:13;;;;;;;;;;;10.30;1.00;;;;;;5045254;28;19909;-81
2023/01/04 14:17:55;;;;;;;;;;;10.40;1.00;;;;;;5046890;28;19919;-82
2023/01/04 14:23:25;;;;;;;;;;;10.30;1.00;;;;;;5039945;28;19959;-77
2023/01/04 14:26:13;;;;;;;;;;;10.30;1.00;;;;;;5034346;28;19909;-77
2023/01/04 14:28:43;;;;;;;;;;;10.30;1.00;;;;;;5046028;28;19916;-76
2023/01/04 14:31:09;;;;;;;;;;;10.30;1.00;;;;;;5048510;28;19912;-76
2023/01/04 14:33:35;;;;;;;;;;;10.30;1.00;;;;;;5040281;28;19916;-76
2023/01/04 14:36:10;;;;;;;;;;;10.30;1.00;;;;;;5045584;28;19909;-77
2023/01/04 14:38:37;;;;;;;;;;;10.30;1.00;;;;;;5037120;28;19921;-77
2023/01/04 14:41:22;;;;;;;;;;;10.40;1.00;;;;;;5048655;28;20260;-77
2023/01/04 14:43:55;;;;;;;;;;;10.40;1.00;;;;;;5040166;28;19913;-88
2023/01/04 14:46:50;;;;;;;;;;;10.40;1.00;;;;;;5044035;28;20287;-78
2023/01/04 14:49:21;;;;;;;;;;;10.40;1.00;;;;;;5049356;28;19956;-81
2023/01/04 14:52:08;;;;;;;;;;;10.40;1.00;;;;;;5045775;28;20004;-80
2023/01/04 14:57:42;;;;;;;;;;;10.40;1.00;;;;;;5049536;28;20474;-80
2023/01/04 15:03:20;;;;;;;;;;;10.40;1.00;;;;;;5043369;28;20014;-79
2023/01/04 15:05:50;;;;;;;;;;;10.40;1.00;;;;;;5043423;28;20004;-81
2023/01/04 15:08:32;;;;;;;;;;;10.40;1.00;;;;;;5056297;28;19960;-81
2023/01/04 15:11:10;;;;;;;;;;;10.40;1.00;;;;;;5039613;28;19909;-80
2023/01/04 15:13:44;;;;;;;;;;;10.40;1.00;;;;;;5043578;28;20008;-80
2023/01/04 15:19:20;;;;;;;;;;;10.40;1.00;;;;;;5041773;28;19920;-80
2023/01/04 15:21:56;;;;;;;;;;;10.50;1.00;;;;;;5034815;28;19916;-80
2023/01/04 15:24:32;;;;;;;;;;;10.50;1.00;;;;;;5040762;28;20003;-81
2023/01/04 15:30:00;;;;;;;;;;;10.40;1.00;;;;;;5052638;28;20107;-81
2023/01/04 15:32:50;;;;;;;;;;;10.40;1.00;;;;;;5044507;28;19956;-81
2023/01/04 15:35:26;;;;;;;;;;;10.40;1.00;;;;;;5055014;28;19916;-80
2023/01/04 15:38:08;;;;;;;;;;;10.40;1.00;;;;;;5052645;28;19921;-80
2023/01/04 15:41:02;;;;;;;;;;;10.50;1.00;;;;;;5035681;28;19917;-81
2023/01/04 15:46:50;;;;;;;;;;;10.40;1.00;;;;;;5049730;28;19916;-80
2023/01/04 15:49:15;;;;;;;;;;;10.50;1.00;;;;;;5042321;28;20431;-81
2023/01/04 15:51:50;;;;;;;;;;;10.50;1.00;;;;;;5047143;28;19921;-81
2023/01/04 15:54:26;;;;;;;;;;;10.50;1.00;;;;;;5039782;28;19915;-81
2023/01/04 15:56:52;;;;;;;;;;;10.50;1.00;;;;;;5042642;28;19990;-81
2023/01/04 15:59:26;;;;;;;;;;;10.50;1.00;;;;;;5050582;28;19992;-81
2023/01/04 16:02:14;;;;;;;;;;;10.60;1.00;;;;;;5050532;28;19924;-81
2023/01/04 16:05:02;;;;;;;;;;;10.60;1.00;;;;;;5039467;28;19996;-81
2023/01/04 16:07:44;;;;;;;;;;;10.60;1.00;;;;;;5037063;28;19913;-80
2023/01/04 16:10:26;;;;;;;;;;;10.60;1.00;;;;;;5040672;28;19967;-81
2023/01/04 16:13:02;;;;;;;;;;;10.60;1.00;;;;;;5055134;28;19975;-81
2023/01/04 16:15:44;;;;;;;;;;;10.60;1.00;;;;;;5045727;28;19909;-81
2023/01/04 16:18:14;;;;;;;;;;;10.60;1.00;;;;;;5057134;28;19915;-82
2023/01/04 16:21:14;;;;;;;;;;;10.50;1.00;;;;;;5062868;28;19962;-81
2023/01/04 16:23:50;;;;;;;;;;;10.50;1.00;;;;;;5044942;28;19998;-81
2023/01/04 16:26:32;;;;;;;;;;;10.50;1.00;;;;;;5037869;28;19934;-80
2023/01/04 16:29:20;;;;;;;;;;;10.40;1.00;;;;;;5047951;28;19924;-81
2023/01/04 16:32:08;;;;;;;;;;;10.50;1.00;;;;;;5034589;28;19920;-80
2023/01/04 16:34:44;;;;;;;;;;;10.40;1.00;;;;;;5041120;28;19947;-79
2023/01/04 16:37:09;;;;;;;;;;;10.50;1.00;;;;;;5042285;28;19917;-80
2023/01/04 16:39:38;;;;;;;;;;;10.50;1.00;;;;;;5042410;28;20387;-81
2023/01/04 16:42:04;;;;;;;;;;;10.50;1.00;;;;;;5040001;28;19909;-81
2023/01/04 16:45:02;;;;;;;;;;;10.60;1.00;;;;;;5042569;28;19909;-81
2023/01/04 16:47:36;;;;;;;;;;;10.50;1.00;;;;;;5047295;28;19913;-81
2023/01/04 16:50:02;;;;;;;;;;;10.60;1.00;;;;;;5048280;28;19913;-82
2023/01/04 16:52:44;;;;;;;;;;;10.60;1.00;;;;;;5039991;28;19975;-82
2023/01/04 16:55:38;;;;;;;;;;;10.60;1.00;;;;;;5046395;28;19959;-84
2023/01/04 16:58:08;;;;;;;;;;;10.60;1.00;;;;;;5040937;28;19909;-84
2023/01/04 17:03:36;;;;;;;;;;;10.60;1.00;;;;;;5035746;28;19916;-82
2023/01/04 17:06:09;;;;;;;;;;;10.60;1.00;;;;;;5033435;28;19910;-80
2023/01/04 17:08:35;;;;;;;;;;;10.60;1.00;;;;;;5034615;28;19940;-80
2023/01/04 17:11:05;;;;;;;;;;;10.60;1.00;;;;;;5032766;28;20361;-81
2023/01/04 17:13:32;;;;;;;;;;;10.70;1.00;;;;;;5049677;28;19959;-80
2023/01/04 17:16:14;;;;;;;;;;;10.60;1.00;;;;;;5040825;28;19952;-79
2023/01/04 17:19:14;;;;;;;;;;;10.60;1.00;;;;;;5038160;28;19909;-80
2023/01/04 17:25:08;;;;;;;;;;;10.60;1.00;;;;;;5048741;28;19920;-81
2023/01/04 17:27:38;;;;;;;;;;;10.60;1.00;;;;;;5045647;28;20024;-81
2023/01/04 17:30:20;;;;;;;;;;;10.60;1.00;;;;;;5036189;28;19913;-82
2023/01/04 17:35:48;;;;;;;;;;;10.70;1.00;;;;;;5049332;28;20280;-81
2023/01/04 17:44:18;;;;;;;;;;;10.70;1.00;;;;;;5035739;28;19997;-80
2023/01/04 17:46:44;;;;;;;;;;;10.70;1.00;;;;;;5043265;28;20011;-81
2023/01/04 17:49:14;;;;;;;;;;;10.70;1.00;;;;;;5040282;28;20323;-81
2023/01/04 17:51:56;;;;;;;;;;;10.80;1.00;;;;;;5053450;28;19909;-78
2023/01/04 17:54:32;;;;;;;;;;;10.80;1.00;;;;;;5051157;28;20332;-77
2023/01/04 17:57:02;;;;;;;;;;;10.70;1.00;;;;;;5032117;28;19913;-78
2023/01/04 18:02:31;;;;;;;;;;;10.60;1.00;;;;;;5035956;28;19960;-77
2023/01/04 18:05:04;;;;;;;;;;;10.60;1.00;;;;;;5044385;28;19909;-77
2023/01/04 18:07:33;;;;;;;;;;;10.70;1.00;;;;;;5045560;28;19913;-79
2023/01/04 18:10:11;;;;;;;;;;;10.70;1.00;;;;;;5041096;28;19909;-80
2023/01/04 18:12:56;;;;;;;;;;;10.80;1.00;;;;;;5045821;28;19909;-80
2023/01/04 18:15:32;;;;;;;;;;;10.70;1.00;;;;;;5043695;28;19959;-80
2023/01/04 18:18:02;;;;;;;;;;;10.70;1.00;;;;;;5050520;28;19959;-79
2023/01/04 18:20:32;;;;;;;;;;;10.70;1.00;;;;;;5040270;28;19909;-79
2023/01/04 18:23:21;;;;;;;;;;;10.70;1.00;;;;;;5041398;28;19917;-82
2023/01/04 18:25:47;;;;;;;;;;;10.60;1.00;;;;;;5043737;28;19909;-82
2023/01/04 18:28:38;;;;;;;;;;;10.50;7.30;;;;;;5048022;28;19920;-82
2023/01/04 18:31:15;;;;;;;;;;;10.50;9.80;;;;;;5039601;28;19913;-83
2023/01/04 18:33:50;;;;;;;;;;;10.50;12.80;;;;;;5037276;28;20365;-82
2023/01/04 18:36:15;;;;;;;;;;;10.40;16.70;;;;;;5038858;28;19932;-81
2023/01/04 18:38:47;;;;;;;;;;;10.40;20.80;;;;;;5048634;28;20250;-80
2023/01/04 18:41:12;;;;;;;;;;;10.40;23.80;;;;;;5043451;28;19912;-80
2023/01/04 18:44:02;;;;;;;;;;;10.40;29.00;;;;;;5049728;28;19916;-80
2023/01/04 18:46:39;;;;;;;;;;;10.40;42.20;;;;;;5046358;28;19999;-78
2023/01/04 18:49:14;;;;;;;;;;;10.40;42.20;;;;;;5056555;28;20003;-78
2023/01/04 18:52:02;;;;;;;;;;;10.30;42.10;;;;;;5036969;28;19909;-79
2023/01/04 18:57:44;;;;;;;;;;;10.20;42.20;;;;;;5055610;28;19971;-83
2023/01/04 19:00:14;;;;;;;;;;;10.20;52.40;;;;;;5055140;28;19913;-83
2023/01/04 19:03:08;;;;;;;;;;;10.20;57.50;;;;;;5041096;28;20364;-84
2023/01/04 19:05:41;;;;;;;;;;;10.20;60.70;;;;;;5050147;28;19912;-83